Time;durP1;ratioP1;P1;durP2;ratioP2;P2;SDS_P1;SDS_P2;PMS_P1;PMS_P2;Temp;Humidity;BMP_temperature;BMP_pressure;BME280_temperature;BME280_humidity;BME280_pressure;Samples;Min_cycle;Max_cycle;Signal;HPM_P1;HPM_P2
2023/05/29 00:00:06;;;;;;;6.18;3.20;;;15.40;67.50;;;;;;5061570;28;20044;-68
2023/05/29 00:02:38;;;;;;;6.90;3.28;;;15.30;67.50;;;;;;5055044;28;20459;-68
2023/05/29 00:05:06;;;;;;;6.32;2.80;;;15.30;67.50;;;;;;5056094;28;20037;-68
2023/05/29 00:07:33;;;;;;;5.75;2.83;;;15.20;67.80;;;;;;5058555;28;20518;-68
2023/05/29 00:10:00;;;;;;;5.53;2.97;;;15.20;67.90;;;;;;5054074;28;20046;-69
2023/05/29 00:12:27;;;;;;;6.15;2.90;;;15.10;68.00;;;;;;5058442;28;20153;-69
2023/05/29 00:14:53;;;;;;;6.03;2.80;;;15.10;68.00;;;;;;5057721;28;20400;-68
2023/05/29 00:17:21;;;;;;;5.63;3.00;;;15.10;68.10;;;;;;5060813;28;20527;-69
2023/05/29 00:19:49;;;;;;;5.97;2.95;;;15.00;68.20;;;;;;5057917;28;20125;-68
2023/05/29 00:22:17;;;;;;;5.95;2.78;;;15.00;68.30;;;;;;5050297;28;20750;-72
2023/05/29 00:24:43;;;;;;;7.13;2.63;;;14.90;68.40;;;;;;5061061;28;20059;-72
2023/05/29 00:27:10;;;;;;;5.75;3.15;;;14.90;68.60;;;;;;5058332;28;20044;-73
2023/05/29 00:29:38;;;;;;;6.40;2.75;;;14.80;68.90;;;;;;5048840;28;20161;-72
2023/05/29 00:32:07;;;;;;;7.60;3.60;;;14.80;69.00;;;;;;5054258;28;20056;-68
2023/05/29 00:34:34;;;;;;;6.03;3.33;;;14.80;69.00;;;;;;5055864;28;20057;-67
2023/05/29 00:37:02;;;;;;;7.07;3.50;;;14.70;68.90;;;;;;5048544;28;20753;-69
2023/05/29 00:39:29;;;;;;;6.63;3.58;;;14.70;69.10;;;;;;5047389;28;20566;-69
2023/05/29 00:41:57;;;;;;;5.85;2.95;;;14.60;69.30;;;;;;5048787;28;20040;-73
2023/05/29 00:44:24;;;;;;;6.78;3.30;;;14.60;69.30;;;;;;5041814;28;20049;-72
2023/05/29 00:46:53;;;;;;;7.47;3.15;;;14.60;69.40;;;;;;5037160;28;20053;-67
2023/05/29 00:49:22;;;;;;;6.05;3.50;;;14.60;69.50;;;;;;5042373;28;20036;-68
2023/05/29 00:51:50;;;;;;;8.63;3.60;;;14.60;69.50;;;;;;5062053;28;20057;-62
2023/05/29 00:54:22;;;;;;;7.45;4.10;;;14.60;69.40;;;;;;5043168;28;20052;-60
2023/05/29 00:56:49;;;;;;;6.32;3.38;;;14.60;69.10;;;;;;5039630;28;20598;-70
2023/05/29 00:59:18;;;;;;;7.18;3.60;;;14.60;69.30;;;;;;5063320;28;20426;-73
2023/05/29 01:01:46;;;;;;;9.27;3.60;;;14.50;69.40;;;;;;5043257;28;20044;-70
2023/05/29 01:04:14;;;;;;;10.40;3.67;;;14.60;69.20;;;;;;5066900;28;20555;-70
2023/05/29 01:06:41;;;;;;;5.55;3.05;;;14.60;69.10;;;;;;5066142;28;20041;-67
2023/05/29 01:09:09;;;;;;;7.40;3.47;;;14.50;69.10;;;;;;5065903;28;20175;-67
2023/05/29 01:11:51;;;;;;;7.65;3.47;;;14.60;68.70;;;;;;5064026;28;20048;-68
2023/05/29 01:14:24;;;;;;;6.70;3.58;;;14.60;68.60;;;;;;5066819;28;20051;-68
2023/05/29 01:16:59;;;;;;;8.35;4.18;;;14.50;68.90;;;;;;5064666;28;20136;-68
2023/05/29 01:19:44;;;;;;;6.90;3.28;;;14.30;69.30;;;;;;5042081;28;20495;-67
2023/05/29 01:22:14;;;;;;;7.25;3.30;;;14.20;69.70;;;;;;5053206;28;20041;-69
2023/05/29 01:24:51;;;;;;;8.27;3.47;;;14.20;69.70;;;;;;5040980;28;21001;-68
2023/05/29 01:27:24;;;;;;;6.90;3.70;;;14.30;69.40;;;;;;5037003;28;20052;-76
2023/05/29 01:29:55;;;;;;;7.50;2.97;;;14.20;69.50;;;;;;5042862;28;20531;-75
2023/05/29 01:32:22;;;;;;;;;;;14.10;69.80;;;;;;5060765;28;20079;-63
2023/05/29 01:34:49;;;;;;;5.97;3.10;;;14.10;70.20;;;;;;5038099;28;19931;-64
2023/05/29 01:37:16;;;;;;;6.28;3.05;;;14.10;70.30;;;;;;5051161;28;20041;-61
2023/05/29 01:39:43;;;;;;;5.65;3.20;;;14.00;70.40;;;;;;5049527;28;20048;-61
2023/05/29 01:42:10;;;;;;;6.00;3.10;;;14.10;70.10;;;;;;5039764;28;20053;-64
2023/05/29 01:44:39;;;;;;;8.02;3.80;;;14.10;70.10;;;;;;5044932;28;20049;-63
2023/05/29 01:47:06;;;;;;;7.53;3.45;;;14.00;70.20;;;;;;5048117;28;20048;-67
2023/05/29 01:49:37;;;;;;;6.63;3.72;;;13.90;70.40;;;;;;5049191;28;20049;-67
2023/05/29 01:52:04;;;;;;;7.80;3.93;;;13.90;70.50;;;;;;5066322;28;20060;-68
2023/05/29 01:54:31;;;;;;;7.68;3.35;;;13.90;70.50;;;;;;5047265;28;20056;-67
2023/05/29 01:56:59;;;;;;;6.72;3.38;;;13.90;70.20;;;;;;5061153;28;20045;-76
2023/05/29 01:59:26;;;;;;;7.32;3.40;;;13.90;70.30;;;;;;5045060;28;20086;-77
2023/05/29 02:01:54;;;;;;;11.48;5.10;;;13.90;70.30;;;;;;5041931;28;20412;-71
2023/05/29 02:04:21;;;;;;;9.20;4.95;;;13.90;70.20;;;;;;5066386;28;20059;-72
2023/05/29 02:06:48;;;;;;;8.95;4.57;;;14.00;69.70;;;;;;5066159;28;20048;-63
2023/05/29 02:09:17;;;;;;;8.13;3.72;;;14.00;69.60;;;;;;5043373;28;20049;-63
2023/05/29 02:11:45;;;;;;;5.82;3.35;;;13.90;70.10;;;;;;5046331;28;20065;-75
2023/05/29 02:14:12;;;;;;;8.80;4.07;;;13.80;70.20;;;;;;5040271;28;20524;-76
2023/05/29 02:16:40;;;;;;;7.35;3.28;;;13.80;70.50;;;;;;5052045;28;20045;-63
2023/05/29 02:19:09;;;;;;;7.25;3.50;;;13.70;70.80;;;;;;5053161;28;20060;-64
2023/05/29 02:21:39;;;;;;;7.63;2.97;;;13.60;71.00;;;;;;5033860;28;20048;-67
2023/05/29 02:24:06;;;;;;;6.45;3.05;;;13.60;71.30;;;;;;5058006;28;20056;-70
2023/05/29 02:26:36;;;;;;;7.55;3.40;;;13.50;71.50;;;;;;5038784;28;20428;-77
2023/05/29 02:29:05;;;;;;;6.90;3.33;;;13.50;71.70;;;;;;5061627;28;20044;-77
2023/05/29 02:31:32;;;;;;;6.50;3.10;;;13.40;71.70;;;;;;5065821;28;20056;-73
2023/05/29 02:33:59;;;;;;;5.70;3.00;;;13.40;71.80;;;;;;5059517;28;20144;-72
2023/05/29 02:36:27;;;;;;;7.20;3.42;;;13.40;71.90;;;;;;5039583;28;20072;-72
2023/05/29 02:38:54;;;;;;;7.20;3.00;;;13.30;72.00;;;;;;5060982;28;20055;-70
2023/05/29 02:41:21;;;;;;;5.30;2.80;;;13.30;72.10;;;;;;5060318;28;20459;-70
2023/05/29 02:43:51;;;;;;;6.63;2.90;;;13.20;72.10;;;;;;5050374;28;20053;-71
2023/05/29 02:46:18;;;;;;;6.85;3.10;;;13.20;72.00;;;;;;5053239;28;20049;-71
2023/05/29 02:48:45;;;;;;;6.88;3.30;;;13.20;72.10;;;;;;5058228;28;20057;-71
2023/05/29 02:51:12;;;;;;;5.95;2.97;;;13.10;72.40;;;;;;5044538;28;20102;-72
2023/05/29 02:53:41;;;;;;;6.35;3.53;;;13.10;72.50;;;;;;5063507;28;20044;-72
2023/05/29 02:56:09;;;;;;;6.05;3.50;;;13.10;72.70;;;;;;5063482;28;20036;-64
2023/05/29 02:58:36;;;;;;;6.60;3.15;;;13.10;72.90;;;;;;5044910;28;20056;-64
2023/05/29 03:01:03;;;;;;;7.28;3.65;;;13.00;72.90;;;;;;5059118;28;20052;-63
2023/05/29 03:03:30;;;;;;;8.75;3.30;;;13.00;72.90;;;;;;5060738;28;20151;-63
2023/05/29 03:05:58;;;;;;;6.78;3.58;;;13.00;72.90;;;;;;5045454;28;20049;-61
2023/05/29 03:08:27;;;;;;;6.40;3.33;;;12.90;72.90;;;;;;5063100;28;20040;-60
2023/05/29 03:10:56;;;;;;;8.10;3.50;;;13.00;72.50;;;;;;5053075;28;20048;-71
2023/05/29 03:13:23;;;;;;;6.07;3.33;;;13.00;72.20;;;;;;5052031;28;20052;-70
2023/05/29 03:15:56;;;;;;;7.03;3.55;;;13.10;72.10;;;;;;5045315;28;20543;-62
2023/05/29 03:18:24;;;;;;;7.53;3.63;;;13.10;71.80;;;;;;5061628;28;20119;-63
2023/05/29 03:20:51;;;;;;;7.60;3.75;;;13.10;72.10;;;;;;5047088;28;20137;-68
2023/05/29 03:23:18;;;;;;;7.72;3.38;;;13.00;72.40;;;;;;5063873;28;20049;-68
2023/05/29 03:25:45;;;;;;;6.80;3.50;;;13.00;72.40;;;;;;5040104;28;20723;-69
2023/05/29 03:28:13;;;;;;;7.28;3.53;;;13.00;72.50;;;;;;5035488;28;20127;-67
2023/05/29 03:30:40;;;;;;;6.18;3.17;;;13.00;72.50;;;;;;5044638;28;20064;-68
2023/05/29 03:33:07;;;;;;;6.70;3.20;;;13.00;72.40;;;;;;5045097;28;20086;-68
2023/05/29 03:35:56;;;;;;;7.18;3.30;;;12.90;72.60;;;;;;5038398;28;20161;-67
2023/05/29 03:38:24;;;;;;;7.75;3.28;;;12.80;72.80;;;;;;5039755;28;20062;-67
2023/05/29 03:40:54;;;;;;;5.68;3.05;;;12.80;73.10;;;;;;5039377;28;20052;-77
2023/05/29 03:43:22;;;;;;;8.48;3.17;;;12.80;73.30;;;;;;5037244;28;20049;-75
2023/05/29 03:45:49;;;;;;;6.57;3.35;;;12.70;73.40;;;;;;5042542;28;20122;-70
2023/05/29 03:48:16;;;;;;;5.32;2.97;;;12.70;73.40;;;;;;5040284;28;20495;-70
2023/05/29 03:50:47;;;;;;;7.47;3.38;;;12.70;73.40;;;;;;5042357;28;20044;-68
2023/05/29 03:53:15;;;;;;;7.97;3.40;;;12.70;73.50;;;;;;5026196;28;20444;-69
2023/05/29 03:55:42;;;;;;;7.70;3.42;;;12.70;73.50;;;;;;5036088;28;20512;-63
2023/05/29 03:58:12;;;;;;;7.65;3.50;;;12.70;73.50;;;;;;5045281;28;20052;-63
2023/05/29 04:00:43;;;;;;;6.80;3.53;;;12.70;73.60;;;;;;5043350;28;20056;-75
2023/05/29 04:03:14;;;;;;;5.90;3.40;;;12.60;73.70;;;;;;5046184;28;20060;-75
2023/05/29 04:05:42;;;;;;;8.85;3.95;;;12.70;73.80;;;;;;5052866;28;20408;-67
2023/05/29 04:08:10;;;;;;;7.38;3.55;;;12.60;74.00;;;;;;5037324;28;20052;-67
2023/05/29 04:10:39;;;;;;;6.63;3.35;;;12.60;74.10;;;;;;5055634;28;20460;-70
2023/05/29 04:13:07;;;;;;;8.70;3.53;;;12.60;74.10;;;;;;5032082;28;20052;-71
2023/05/29 04:15:34;;;;;;;10.00;3.88;;;12.60;74.10;;;;;;5029267;28;20076;-63
2023/05/29 04:18:02;;;;;;;8.05;4.43;;;12.60;73.80;;;;;;5050195;28;20045;-63
2023/05/29 04:20:30;;;;;;;7.78;3.75;;;12.70;73.70;;;;;;5039367;28;20044;-76
2023/05/29 04:22:57;;;;;;;7.82;3.67;;;12.70;73.90;;;;;;5032088;28;20118;-76
2023/05/29 04:25:25;;;;;;;6.63;3.35;;;12.70;74.10;;;;;;5042214;28;20115;-69
2023/05/29 04:27:52;;;;;;;7.38;3.47;;;12.70;74.00;;;;;;5058354;28;20045;-71
2023/05/29 04:30:23;;;;;;;6.25;2.90;;;12.70;73.90;;;;;;5054347;28;20051;-68
2023/05/29 04:32:52;;;;;;;9.38;3.78;;;12.80;73.80;;;;;;5060339;28;20053;-71
2023/05/29 04:35:21;;;;;;;7.97;3.85;;;12.90;73.10;;;;;;5041542;28;20053;-71
2023/05/29 04:37:58;;;;;;;9.45;4.05;;;12.90;73.10;;;;;;5058243;28;20061;-71
2023/05/29 04:40:31;;;;;;;7.75;3.88;;;12.90;72.80;;;;;;5046845;28;20052;-63
2023/05/29 04:43:00;;;;;;;7.25;3.92;;;12.90;73.00;;;;;;5058562;28;20392;-62
2023/05/29 04:45:29;;;;;;;8.15;3.60;;;13.00;73.00;;;;;;5042125;28;20823;-62
2023/05/29 04:47:56;;;;;;;6.35;3.50;;;13.00;73.00;;;;;;5051515;28;20045;-59
2023/05/29 04:50:25;;;;;;;7.90;3.70;;;13.10;72.80;;;;;;5038509;28;20068;-74
2023/05/29 04:52:53;;;;;;;6.70;3.65;;;13.10;73.00;;;;;;5037756;28;20052;-76
2023/05/29 04:55:21;;;;;;;6.70;3.28;;;13.10;72.70;;;;;;5043001;28;20044;-75
2023/05/29 04:57:48;;;;;;;8.18;3.97;;;13.10;72.80;;;;;;5058699;28;20044;-75
2023/05/29 05:00:19;;;;;;;7.50;3.58;;;13.20;72.70;;;;;;5041341;28;20139;-76
2023/05/29 05:02:46;;;;;;;6.47;3.80;;;13.30;72.50;;;;;;5057354;28;20073;-76
2023/05/29 05:05:14;;;;;;;8.35;3.80;;;13.30;72.40;;;;;;5047122;28;20041;-76
2023/05/29 05:07:42;;;;;;;8.27;3.42;;;13.40;72.20;;;;;;5056629;28;20326;-76
2023/05/29 05:10:10;;;;;;;8.40;3.40;;;13.50;72.20;;;;;;5041769;28;20480;-76
2023/05/29 05:12:37;;;;;;;7.10;3.22;;;13.40;72.20;;;;;;5049690;28;20056;-76
2023/05/29 05:15:06;;;;;;;6.78;3.90;;;13.50;72.40;;;;;;5036634;28;20512;-75
2023/05/29 05:17:34;;;;;;;6.53;3.35;;;13.50;72.70;;;;;;5032878;28;20100;-76
2023/05/29 05:20:03;;;;;;;8.45;3.63;;;13.50;72.70;;;;;;5038913;28;20055;-76
2023/05/29 05:22:30;;;;;;;6.63;3.40;;;13.60;72.70;;;;;;5058123;28;20037;-75
2023/05/29 05:24:59;;;;;;;7.20;3.53;;;13.60;72.80;;;;;;5043183;28;20048;-75
2023/05/29 05:27:26;;;;;;;7.18;3.67;;;13.60;72.80;;;;;;5051931;28;20060;-75
2023/05/29 05:29:54;;;;;;;7.18;3.70;;;13.70;72.50;;;;;;5046516;28;20403;-77
2023/05/29 05:32:21;;;;;;;6.60;3.80;;;13.70;72.40;;;;;;5068376;28;20068;-75
2023/05/29 05:34:54;;;;;;;6.53;3.20;;;13.80;72.20;;;;;;5047674;28;20040;-75
2023/05/29 05:37:23;;;;;;;7.72;3.80;;;13.80;72.30;;;;;;5042385;28;20051;-77
2023/05/29 05:39:53;;;;;;;6.22;3.35;;;13.80;72.40;;;;;;5039234;28;20114;-76
2023/05/29 05:42:22;;;;;;;8.30;4.00;;;13.90;72.20;;;;;;5066125;28;20040;-77
2023/05/29 05:44:54;;;;;;;7.40;3.47;;;14.00;72.00;;;;;;5049098;28;20067;-76
2023/05/29 05:47:20;;;;;;;6.60;3.60;;;14.00;72.20;;;;;;5061016;28;20145;-77
2023/05/29 05:49:49;;;;;;;7.45;3.60;;;14.10;72.30;;;;;;5040828;28;20418;-76
2023/05/29 05:52:16;;;;;;;5.57;3.20;;;14.20;72.20;;;;;;5050383;28;20053;-76
2023/05/29 05:54:43;;;;;;;9.20;3.53;;;14.20;71.90;;;;;;5063657;28;20938;-75
2023/05/29 05:57:12;;;;;;;7.07;3.40;;;14.20;71.80;;;;;;5045382;28;20068;-76
2023/05/29 05:59:41;;;;;;;6.28;3.40;;;14.30;71.40;;;;;;5046102;28;20055;-76
2023/05/29 06:02:08;;;;;;;8.13;3.75;;;14.40;71.20;;;;;;5038768;28;20135;-76
2023/05/29 06:04:35;;;;;;;6.03;3.42;;;14.40;71.30;;;;;;5060249;28;20059;-76
2023/05/29 06:07:05;;;;;;;6.10;3.50;;;14.40;71.60;;;;;;5063419;28;20050;-68
2023/05/29 06:09:32;;;;;;;6.78;3.20;;;14.50;71.60;;;;;;5065780;28;20045;-68
2023/05/29 06:11:59;;;;;;;7.35;3.35;;;14.50;71.40;;;;;;5061169;28;20060;-68
2023/05/29 06:14:27;;;;;;;6.30;3.20;;;14.60;71.20;;;;;;5047855;28;20048;-68
2023/05/29 06:16:56;;;;;;;8.57;3.47;;;14.60;71.10;;;;;;5050618;28;20051;-69
2023/05/29 06:19:23;;;;;;;10.05;3.35;;;14.70;71.00;;;;;;5037804;28;20049;-68
2023/05/29 06:21:58;;;;;;;5.85;3.33;;;14.70;70.70;;;;;;5041663;28;20045;-67
2023/05/29 06:24:27;;;;;;;8.70;3.40;;;14.80;70.60;;;;;;5045548;28;20132;-66
2023/05/29 06:26:56;;;;;;;6.95;2.88;;;14.90;70.50;;;;;;5045888;28;20040;-67
2023/05/29 06:29:23;;;;;;;7.35;2.97;;;15.00;70.20;;;;;;5044316;28;20501;-67
2023/05/29 06:31:51;;;;;;;6.55;3.15;;;15.10;69.70;;;;;;5044896;28;20048;-69
2023/05/29 06:34:21;;;;;;;6.57;3.30;;;15.30;69.40;;;;;;5042679;28;20056;-68
2023/05/29 06:36:48;;;;;;;6.28;3.38;;;15.40;68.90;;;;;;5041473;28;20044;-68
2023/05/29 06:39:15;;;;;;;5.85;3.25;;;15.60;68.80;;;;;;5060985;28;20044;-67
2023/05/29 06:41:42;;;;;;;6.65;3.50;;;15.70;68.40;;;;;;5044982;28;20059;-75
2023/05/29 06:44:09;;;;;;;6.85;3.67;;;15.90;67.90;;;;;;5048059;28;20052;-75
2023/05/29 06:46:36;;;;;;;8.50;3.80;;;16.10;67.50;;;;;;5040206;28;20053;-68
2023/05/29 06:49:03;;;;;;;7.50;3.95;;;16.20;67.10;;;;;;5052489;28;20057;-68
2023/05/29 06:51:32;;;;;;;9.65;5.03;;;16.40;66.80;;;;;;5060933;28;20514;-66
2023/05/29 06:54:21;;;;;;;9.10;4.20;;;16.60;66.00;;;;;;5035921;28;20041;-67
2023/05/29 06:56:48;;;;;;;10.00;5.03;;;16.80;65.70;;;;;;5040076;28;20053;-66
2023/05/29 06:59:15;;;;;;;10.05;4.93;;;16.90;65.20;;;;;;5043895;28;20094;-67
2023/05/29 07:01:42;;;;;;;9.35;4.60;;;17.10;65.10;;;;;;5042007;28;20068;-70
2023/05/29 07:04:09;;;;;;;7.68;3.95;;;17.20;65.10;;;;;;5045206;28;20511;-70
2023/05/29 07:06:39;;;;;;;8.68;4.28;;;17.30;64.70;;;;;;5056954;28;20053;-61
2023/05/29 07:09:07;;;;;;;9.63;4.35;;;17.40;64.60;;;;;;5039694;28;20483;-61
2023/05/29 07:11:35;;;;;;;11.65;5.57;;;17.60;64.00;;;;;;5050632;28;20109;-62
2023/05/29 07:14:02;;;;;;;8.32;5.10;;;17.70;63.80;;;;;;5051998;28;20139;-61
2023/05/29 07:16:28;;;;;;;8.68;4.85;;;17.90;63.30;;;;;;5049250;28;20045;-67
2023/05/29 07:19:03;;;;;;;10.05;5.68;;;18.10;62.70;;;;;;5035929;28;20080;-67
2023/05/29 07:21:32;;;;;;;;;;;18.30;62.20;;;;;;5049595;28;20408;-70
2023/05/29 07:24:01;;;;;;;7.10;4.13;;;18.40;62.30;;;;;;5043288;28;19920;-70
2023/05/29 07:26:28;;;;;;;7.10;4.13;;;18.60;61.70;;;;;;5065734;28;20041;-70
2023/05/29 07:28:55;;;;;;;8.85;4.28;;;18.70;61.20;;;;;;5062057;28;20413;-70
2023/05/29 07:31:22;;;;;;;9.43;4.45;;;19.00;60.40;;;;;;5035960;28;20407;-70
2023/05/29 07:33:51;;;;;;;5.93;3.20;;;19.10;60.10;;;;;;5045277;28;20053;-70
2023/05/29 07:36:18;;;;;;;6.55;3.38;;;19.20;59.50;;;;;;5054279;28;20060;-63
2023/05/29 07:38:47;;;;;;;7.22;3.42;;;19.30;59.70;;;;;;5032843;28;20053;-62
2023/05/29 07:41:17;;;;;;;8.23;3.38;;;19.50;59.90;;;;;;5048202;28;20060;-76
2023/05/29 07:43:52;;;;;;;8.88;3.85;;;19.60;59.10;;;;;;5060629;28;20127;-77
2023/05/29 07:46:20;;;;;;;7.38;3.63;;;19.70;59.30;;;;;;5041004;28;20040;-68
2023/05/29 07:48:49;;;;;;;8.13;3.72;;;19.90;59.00;;;;;;5042464;28;20056;-67
2023/05/29 07:51:17;;;;;;;8.70;4.03;;;20.10;59.00;;;;;;5051354;28;20523;-71
2023/05/29 07:53:46;;;;;;;;;;;20.10;58.30;;;;;;5046702;28;20052;-70
2023/05/29 07:56:14;;;;;;;6.78;3.67;;;20.20;57.80;;;;;;5038793;28;19932;-68
2023/05/29 07:58:42;;;;;;;6.63;3.80;;;20.40;58.10;;;;;;5036207;28;20503;-68
2023/05/29 08:01:09;;;;;;;9.00;3.80;;;20.60;57.80;;;;;;5055946;28;20040;-62
2023/05/29 08:03:36;;;;;;;9.18;3.75;;;20.60;57.40;;;;;;5039744;28;20499;-62
2023/05/29 08:06:06;;;;;;;;;;;20.70;57.10;;;;;;5061597;28;20559;-63
2023/05/29 08:08:34;;;;;;;5.78;3.03;;;20.90;56.70;;;;;;5045207;28;19935;-62
2023/05/29 08:11:01;;;;;;;5.20;3.08;;;21.00;56.50;;;;;;5057683;28;20049;-62
2023/05/29 08:13:28;;;;;;;6.72;3.45;;;21.10;56.10;;;;;;5042830;28;20669;-62
2023/05/29 08:15:57;;;;;;;7.57;3.35;;;21.20;56.40;;;;;;5040298;28;20159;-70
2023/05/29 08:18:27;;;;;;;7.78;3.22;;;21.40;56.20;;;;;;5059162;28;21312;-70
2023/05/29 08:20:53;;;;;;;8.57;3.63;;;21.50;55.90;;;;;;5059786;28;20717;-68
2023/05/29 08:23:20;;;;;;;7.43;3.55;;;21.60;55.50;;;;;;5062468;28;20412;-68
2023/05/29 08:25:47;;;;;;;6.00;3.10;;;21.70;54.90;;;;;;5056449;28;20520;-70
2023/05/29 08:28:15;;;;;;;6.18;3.30;;;21.80;54.90;;;;;;5052786;28;20074;-70
2023/05/29 08:30:42;;;;;;;6.45;2.95;;;22.00;54.80;;;;;;5054893;28;20055;-70
2023/05/29 08:33:10;;;;;;;7.30;3.45;;;22.10;54.50;;;;;;5059946;28;20044;-71
2023/05/29 08:35:37;;;;;;;7.45;3.13;;;22.20;53.40;;;;;;5059126;28;20136;-60
2023/05/29 08:38:04;;;;;;;6.05;2.95;;;22.30;52.90;;;;;;5053609;28;20073;-63
2023/05/29 08:40:31;;;;;;;7.45;3.10;;;22.40;53.20;;;;;;5059294;28;20063;-72
2023/05/29 08:43:03;;;;;;;5.35;3.08;;;22.40;53.10;;;;;;5055839;28;20048;-71
2023/05/29 08:45:30;;;;;;;7.32;3.42;;;22.50;52.90;;;;;;5054794;28;20044;-68
2023/05/29 08:48:01;;;;;;;5.80;2.92;;;22.60;52.70;;;;;;5058278;28;20594;-69
2023/05/29 08:50:29;;;;;;;6.35;3.05;;;22.70;52.80;;;;;;5061258;28;20045;-77
2023/05/29 08:52:57;;;;;;;5.95;3.05;;;22.80;52.90;;;;;;5059764;28;20527;-76
2023/05/29 08:55:24;;;;;;;6.45;3.17;;;23.00;51.60;;;;;;5062473;28;20392;-67
2023/05/29 08:57:52;;;;;;;6.82;3.25;;;23.20;50.70;;;;;;5056397;28;20480;-68
2023/05/29 09:00:28;;;;;;;6.88;2.97;;;23.20;51.50;;;;;;5056591;28;20048;-69
2023/05/29 09:02:56;;;;;;;5.70;2.80;;;23.20;51.20;;;;;;5059217;28;20068;-68
2023/05/29 09:05:27;;;;;;;5.75;2.30;;;23.30;51.70;;;;;;5065974;28;20037;-69
2023/05/29 09:07:55;;;;;;;4.50;2.78;;;23.40;50.90;;;;;;5065330;28;20110;-69
2023/05/29 09:10:22;;;;;;;5.18;2.88;;;23.50;50.60;;;;;;5062071;28;20118;-68
2023/05/29 09:12:51;;;;;;;6.85;2.97;;;23.50;50.80;;;;;;5063448;28;20057;-68
2023/05/29 09:15:20;;;;;;;6.60;2.70;;;23.60;50.50;;;;;;5054959;28;20053;-69
2023/05/29 09:17:52;;;;;;;6.10;3.13;;;23.70;50.60;;;;;;5047751;28;20102;-67
2023/05/29 09:20:22;;;;;;;7.30;4.35;;;23.80;50.10;;;;;;5062725;28;20430;-68
2023/05/29 09:22:55;;;;;;;8.25;5.28;;;24.00;49.70;;;;;;5069715;28;20076;-68
2023/05/29 09:25:24;;;;;;;7.03;4.20;;;24.00;49.60;;;;;;5064511;28;20056;-68
2023/05/29 09:27:57;;;;;;;7.15;4.10;;;24.10;49.40;;;;;;5060734;28;20052;-68
2023/05/29 09:30:37;;;;;;;6.25;3.75;;;24.20;49.30;;;;;;5059592;28;20053;-71
2023/05/29 09:33:05;;;;;;;5.40;3.17;;;24.30;49.00;;;;;;5068573;28;20052;-61
2023/05/29 09:35:37;;;;;;;7.13;3.20;;;24.30;48.50;;;;;;5064950;28;20048;-62
2023/05/29 09:38:06;;;;;;;6.90;3.35;;;24.50;48.20;;;;;;5059653;28;20048;-60
2023/05/29 09:40:33;;;;;;;4.93;2.85;;;24.50;47.90;;;;;;5062348;28;20057;-62
2023/05/29 09:43:07;;;;;;;6.90;3.38;;;24.60;47.70;;;;;;5063578;28;20067;-62
2023/05/29 09:45:38;;;;;;;11.50;7.72;;;24.70;47.50;;;;;;5064065;28;20049;-74
2023/05/29 09:48:06;;;;;;;13.25;7.53;;;24.80;47.60;;;;;;5061063;28;20048;-74
2023/05/29 09:50:33;;;;;;;10.60;6.63;;;24.80;47.40;;;;;;5058022;28;20049;-61
2023/05/29 09:53:01;;;;;;;8.80;5.18;;;24.90;47.10;;;;;;5058744;28;24391;-63
2023/05/29 09:55:32;;;;;;;7.22;4.97;;;25.10;46.10;;;;;;5065226;28;20614;-68
2023/05/29 09:58:00;;;;;;;7.68;3.88;;;25.10;45.50;;;;;;5061281;28;20487;-67
2023/05/29 10:00:27;;;;;;;6.82;4.10;;;25.20;45.00;;;;;;5056731;28;20064;-68
2023/05/29 10:02:54;;;;;;;6.55;3.22;;;25.20;45.10;;;;;;5061074;28;20052;-69
2023/05/29 10:05:21;;;;;;;7.57;4.75;;;25.30;44.60;;;;;;5063985;28;20040;-69
2023/05/29 10:07:53;;;;;;;7.40;4.63;;;25.40;44.90;;;;;;5060334;28;20513;-69
2023/05/29 10:10:20;;;;;;;7.95;5.20;;;25.50;44.80;;;;;;5057745;28;20052;-69
2023/05/29 10:12:51;;;;;;;8.65;5.20;;;25.60;44.70;;;;;;5062387;28;21573;-69
2023/05/29 10:15:19;;;;;;;6.60;4.70;;;25.60;43.90;;;;;;5054672;28;20049;-71
2023/05/29 10:17:51;;;;;;;7.45;4.82;;;25.70;43.00;;;;;;5056002;28;20048;-68
2023/05/29 10:20:20;;;;;;;7.55;4.95;;;25.80;42.70;;;;;;5059805;28;20044;-69
2023/05/29 10:22:51;;;;;;;9.00;4.50;;;25.80;42.50;;;;;;5055961;28;20051;-69
2023/05/29 10:25:21;;;;;;;6.60;4.10;;;25.90;41.50;;;;;;5064778;28;20049;-69
2023/05/29 10:27:49;;;;;;;8.98;5.15;;;26.00;41.60;;;;;;5062670;28;20057;-70
2023/05/29 10:30:26;;;;;;;7.50;3.72;;;26.00;41.80;;;;;;5066012;28;20513;-69
2023/05/29 10:33:34;;;;;;;6.78;3.70;;;26.10;41.70;;;;;;5056092;28;20045;-69
2023/05/29 10:36:08;;;;;;;7.53;3.83;;;26.10;41.50;;;;;;4958018;28;20051;-68
2023/05/29 10:38:35;;;;;;;8.18;4.70;;;26.20;41.50;;;;;;4955897;28;20046;-68
2023/05/29 10:41:29;;;;;;;8.05;5.43;;;26.30;40.80;;;;;;5016692;28;20063;-71
2023/05/29 10:43:58;;;;;;;9.32;5.57;;;26.40;40.90;;;;;;5055190;28;20048;-71
2023/05/29 10:46:40;;;;;;;;;;;26.40;40.90;;;;;;5060376;28;20049;-67
2023/05/29 10:49:17;;;;;;;7.82;3.42;;;26.40;40.30;;;;;;5061378;28;19924;-68
2023/05/29 10:51:44;;;;;;;7.70;3.45;;;26.50;40.10;;;;;;5062354;28;20054;-64
2023/05/29 10:54:11;;;;;;;6.15;3.03;;;26.50;39.60;;;;;;5062594;28;20049;-65
2023/05/29 10:56:39;;;;;;;4.97;2.78;;;26.50;39.70;;;;;;5050189;28;20044;-65
2023/05/29 10:59:09;;;;;;;5.18;2.80;;;26.60;39.10;;;;;;5059027;28;20047;-65
2023/05/29 11:01:39;;;;;;;7.25;3.40;;;26.60;39.10;;;;;;5055487;28;20056;-68
2023/05/29 11:04:31;;;;;;;7.07;4.70;;;26.70;39.40;;;;;;5065226;28;20048;-68
2023/05/29 11:06:58;;;;;;;6.85;3.88;;;26.70;38.70;;;;;;5056970;28;20072;-63
2023/05/29 11:09:30;;;;;;;6.00;3.63;;;26.80;38.30;;;;;;5062800;28;20044;-62
2023/05/29 11:12:35;;;;;;;6.10;3.50;;;26.80;38.20;;;;;;5054657;28;20129;-72
2023/05/29 11:15:07;;;;;;;6.38;3.08;;;26.90;37.70;;;;;;4947951;28;20096;-72
2023/05/29 11:17:45;;;;;;;5.15;2.95;;;27.00;37.40;;;;;;5035857;28;20055;-70
2023/05/29 11:20:23;;;;;;;6.13;2.90;;;26.90;37.80;;;;;;5049877;28;20545;-71
2023/05/29 11:23:01;;;;;;;6.60;2.90;;;27.00;38.40;;;;;;5060313;28;20047;-71
2023/05/29 11:25:29;;;;;;;5.53;2.90;;;27.10;37.80;;;;;;5061219;28;20072;-62
2023/05/29 11:27:57;;;;;;;5.65;2.63;;;27.10;37.70;;;;;;5063882;28;20487;-62
2023/05/29 11:30:26;;;;;;;5.90;2.73;;;27.10;37.60;;;;;;5062326;28;20053;-63
2023/05/29 11:32:54;;;;;;;5.25;2.70;;;27.20;38.20;;;;;;5064805;28;20407;-69
2023/05/29 11:35:23;;;;;;;4.93;2.55;;;27.10;37.80;;;;;;5037471;28;20050;-69
2023/05/29 11:37:50;;;;;;;4.93;3.15;;;27.20;37.50;;;;;;5054858;28;20045;-69
2023/05/29 11:40:17;;;;;;;5.60;2.90;;;27.20;37.40;;;;;;5041313;28;20040;-69
2023/05/29 11:42:45;;;;;;;5.97;2.97;;;27.20;38.00;;;;;;5054771;28;20040;-71
2023/05/29 11:45:17;;;;;;;4.87;2.77;;;27.20;38.20;;;;;;5037601;28;20055;-69
2023/05/29 11:47:55;;;;;;;6.28;3.13;;;27.20;37.90;;;;;;5061255;28;20051;-72
2023/05/29 11:50:23;;;;;;;5.05;2.80;;;27.10;38.00;;;;;;5055119;28;20049;-73
2023/05/29 11:52:51;;;;;;;5.57;2.78;;;27.30;37.30;;;;;;5064031;28;20049;-76
2023/05/29 11:55:19;;;;;;;6.35;3.10;;;27.30;37.30;;;;;;5055951;28;20041;-73
2023/05/29 11:57:46;;;;;;;5.50;3.53;;;27.40;36.90;;;;;;5054648;28;20068;-74
2023/05/29 12:00:15;;;;;;;5.15;3.05;;;27.40;37.00;;;;;;5061032;28;20059;-73
2023/05/29 12:02:43;;;;;;;5.22;3.25;;;27.40;37.00;;;;;;5061580;28;20076;-61
2023/05/29 12:05:14;;;;;;;5.78;3.10;;;27.40;37.10;;;;;;5064585;28;20052;-61
2023/05/29 12:07:51;;;;;;;6.97;3.25;;;27.40;37.20;;;;;;5060391;28;20701;-62
2023/05/29 12:10:20;;;;;;;6.30;3.88;;;27.40;36.90;;;;;;5063011;28;20047;-61
2023/05/29 12:12:48;;;;;;;;;;;27.30;37.50;;;;;;5051319;28;20109;-61
2023/05/29 12:15:15;;;;;;;6.20;3.28;;;27.30;37.50;;;;;;5060881;28;19940;-62
2023/05/29 12:17:43;;;;;;;7.22;3.30;;;27.40;36.90;;;;;;5053287;28;20068;-61
2023/05/29 12:20:12;;;;;;;5.18;3.20;;;27.40;36.60;;;;;;5064143;28;20129;-62
2023/05/29 12:22:40;;;;;;;5.63;3.00;;;27.40;36.50;;;;;;5055298;28;20049;-62
2023/05/29 12:25:09;;;;;;;6.17;3.10;;;27.40;36.30;;;;;;5057978;28;20479;-62
2023/05/29 12:27:41;;;;;;;6.00;2.72;;;27.30;36.70;;;;;;5057506;28;20075;-62
2023/05/29 12:30:10;;;;;;;5.30;3.35;;;27.30;36.80;;;;;;5057653;28;20056;-61
2023/05/29 12:32:38;;;;;;;6.25;2.65;;;27.40;36.80;;;;;;5059753;28;20072;-62
2023/05/29 12:35:15;;;;;;;6.72;2.67;;;27.30;36.90;;;;;;5064506;28;20068;-61
2023/05/29 12:37:46;;;;;;;6.20;2.88;;;27.30;36.80;;;;;;5052983;28;20045;-61
2023/05/29 12:40:17;;;;;;;4.75;2.67;;;27.20;37.10;;;;;;5059907;28;20052;-63
2023/05/29 12:42:44;;;;;;;4.47;3.15;;;27.30;37.80;;;;;;5054602;28;20064;-69
2023/05/29 12:45:12;;;;;;;4.07;2.45;;;27.30;37.90;;;;;;5059712;28;20056;-66
2023/05/29 12:47:39;;;;;;;5.80;2.50;;;27.30;37.20;;;;;;5051569;28;20053;-67
2023/05/29 12:50:32;;;;;;;6.07;2.90;;;27.30;36.40;;;;;;5061628;28;20051;-65
2023/05/29 12:53:02;;;;;;;7.47;3.40;;;27.20;36.70;;;;;;5060513;28;20045;-72
2023/05/29 12:55:33;;;;;;;6.32;3.83;;;27.10;36.50;;;;;;5057196;28;20704;-62
2023/05/29 12:58:00;;;;;;;6.15;3.53;;;27.10;36.30;;;;;;5060831;28;20040;-63